sensor_id;sensor_type;location;lat;lon;timestamp;P1;durP1;ratioP1;P2;durP2;ratioP2
70838;SDS011;58464;52.298;4.852;2023-08-01T00:01:03;10.48;;;2.90;;
70838;SDS011;58464;52.298;4.852;2023-08-01T00:03:28;13.38;;;4.50;;
70838;SDS011;58464;52.298;4.852;2023-08-01T00:05:53;17.50;;;3.70;;
70838;SDS011;58464;52.298;4.852;2023-08-01T00:08:21;15.88;;;5.15;;
70838;SDS011;58464;52.298;4.852;2023-08-01T00:10:46;16.92;;;3.70;;
70838;SDS011;58464;52.298;4.852;2023-08-01T00:13:11;25.30;;;4.82;;
70838;SDS011;58464;52.298;4.852;2023-08-01T00:15:37;13.23;;;3.80;;
70838;SDS011;58464;52.298;4.852;2023-08-01T00:18:02;10.35;;;3.47;;
70838;SDS011;58464;52.298;4.852;2023-08-01T00:20:28;13.32;;;3.45;;
70838;SDS011;58464;52.298;4.852;2023-08-01T00:22:53;10.68;;;3.33;;
70838;SDS011;58464;52.298;4.852;2023-08-01T00:25:19;15.00;;;4.17;;
70838;SDS011;58464;52.298;4.852;2023-08-01T00:27:45;17.20;;;4.47;;
70838;SDS011;58464;52.298;4.852;2023-08-01T00:30:11;13.85;;;3.92;;
70838;SDS011;58464;52.298;4.852;2023-08-01T00:32:37;20.15;;;4.32;;
70838;SDS011;58464;52.298;4.852;2023-08-01T00:35:02;13.75;;;3.72;;
70838;SDS011;58464;52.298;4.852;2023-08-01T00:37:28;10.63;;;3.92;;
70838;SDS011;58464;52.298;4.852;2023-08-01T00:39:53;16.40;;;3.80;;
70838;SDS011;58464;52.298;4.852;2023-08-01T00:42:19;13.55;;;3.63;;
70838;SDS011;58464;52.298;4.852;2023-08-01T00:44:44;15.07;;;4.55;;
70838;SDS011;58464;52.298;4.852;2023-08-01T00:47:09;20.42;;;4.40;;
70838;SDS011;58464;52.298;4.852;2023-08-01T00:49:35;12.48;;;3.95;;
70838;SDS011;58464;52.298;4.852;2023-08-01T00:52:00;22.00;;;4.47;;
70838;SDS011;58464;52.298;4.852;2023-08-01T00:54:26;19.43;;;3.53;;
70838;SDS011;58464;52.298;4.852;2023-08-01T00:56:51;13.23;;;4.18;;
70838;SDS011;58464;52.298;4.852;2023-08-01T00:59:18;12.38;;;4.25;;
70838;SDS011;58464;52.298;4.852;2023-08-01T01:01:43;14.48;;;3.67;;
70838;SDS011;58464;52.298;4.852;2023-08-01T01:04:09;18.73;;;4.20;;
70838;SDS011;58464;52.298;4.852;2023-08-01T01:06:36;18.13;;;3.90;;
70838;SDS011;58464;52.298;4.852;2023-08-01T01:09:02;21.42;;;4.70;;
70838;SDS011;58464;52.298;4.852;2023-08-01T01:11:38;12.60;;;4.40;;
70838;SDS011;58464;52.298;4.852;2023-08-01T01:14:04;16.58;;;3.80;;
70838;SDS011;58464;52.298;4.852;2023-08-01T01:16:29;17.17;;;4.03;;
70838;SDS011;58464;52.298;4.852;2023-08-01T01:18:54;10.52;;;3.85;;
70838;SDS011;58464;52.298;4.852;2023-08-01T01:21:19;19.93;;;4.23;;
70838;SDS011;58464;52.298;4.852;2023-08-01T01:23:45;12.37;;;4.10;;
70838;SDS011;58464;52.298;4.852;2023-08-01T01:26:10;19.92;;;4.70;;
70838;SDS011;58464;52.298;4.852;2023-08-01T01:28:36;17.15;;;3.83;;
70838;SDS011;58464;52.298;4.852;2023-08-01T01:31:02;15.15;;;3.35;;
70838;SDS011;58464;52.298;4.852;2023-08-01T01:33:27;13.20;;;3.20;;
70838;SDS011;58464;52.298;4.852;2023-08-01T01:35:53;14.40;;;4.53;;
70838;SDS011;58464;52.298;4.852;2023-08-01T01:38:19;13.63;;;3.95;;
70838;SDS011;58464;52.298;4.852;2023-08-01T01:40:44;14.90;;;4.18;;
70838;SDS011;58464;52.298;4.852;2023-08-01T01:43:09;16.10;;;5.10;;
70838;SDS011;58464;52.298;4.852;2023-08-01T01:45:35;13.47;;;3.80;;
70838;SDS011;58464;52.298;4.852;2023-08-01T01:48:00;10.23;;;3.38;;
70838;SDS011;58464;52.298;4.852;2023-08-01T01:50:26;18.07;;;3.53;;
70838;SDS011;58464;52.298;4.852;2023-08-01T01:52:51;11.10;;;2.70;;
70838;SDS011;58464;52.298;4.852;2023-08-01T01:55:16;7.33;;;2.57;;
70838;SDS011;58464;52.298;4.852;2023-08-01T01:57:41;7.97;;;2.28;;
70838;SDS011;58464;52.298;4.852;2023-08-01T02:00:07;6.20;;;2.28;;
70838;SDS011;58464;52.298;4.852;2023-08-01T02:02:35;6.80;;;2.00;;
70838;SDS011;58464;52.298;4.852;2023-08-01T02:05:00;6.80;;;2.70;;
70838;SDS011;58464;52.298;4.852;2023-08-01T02:07:26;6.77;;;2.03;;
70838;SDS011;58464;52.298;4.852;2023-08-01T02:09:51;9.90;;;2.80;;
70838;SDS011;58464;52.298;4.852;2023-08-01T02:12:21;7.13;;;2.20;;
70838;SDS011;58464;52.298;4.852;2023-08-01T02:14:46;10.53;;;2.57;;
70838;SDS011;58464;52.298;4.852;2023-08-01T02:17:12;6.07;;;2.22;;
70838;SDS011;58464;52.298;4.852;2023-08-01T02:19:38;7.60;;;1.95;;
70838;SDS011;58464;52.298;4.852;2023-08-01T02:22:03;6.40;;;2.20;;
70838;SDS011;58464;52.298;4.852;2023-08-01T02:24:28;9.90;;;2.35;;
70838;SDS011;58464;52.298;4.852;2023-08-01T02:26:53;14.40;;;2.37;;
70838;SDS011;58464;52.298;4.852;2023-08-01T02:29:19;6.60;;;2.50;;
70838;SDS011;58464;52.298;4.852;2023-08-01T02:31:44;5.80;;;2.10;;
70838;SDS011;58464;52.298;4.852;2023-08-01T02:34:09;9.77;;;2.97;;
70838;SDS011;58464;52.298;4.852;2023-08-01T02:36:34;11.53;;;2.50;;
70838;SDS011;58464;52.298;4.852;2023-08-01T02:39:00;8.70;;;2.78;;
70838;SDS011;58464;52.298;4.852;2023-08-01T02:41:25;8.23;;;2.45;;
70838;SDS011;58464;52.298;4.852;2023-08-01T02:43:50;10.98;;;2.70;;
70838;SDS011;58464;52.298;4.852;2023-08-01T02:46:16;12.98;;;2.90;;
70838;SDS011;58464;52.298;4.852;2023-08-01T02:48:41;9.20;;;2.60;;
70838;SDS011;58464;52.298;4.852;2023-08-01T02:51:06;8.73;;;2.90;;
70838;SDS011;58464;52.298;4.852;2023-08-01T02:53:34;12.57;;;3.00;;
70838;SDS011;58464;52.298;4.852;2023-08-01T02:55:59;8.77;;;2.33;;
70838;SDS011;58464;52.298;4.852;2023-08-01T02:58:24;15.85;;;3.35;;
70838;SDS011;58464;52.298;4.852;2023-08-01T03:00:50;14.80;;;3.42;;
70838;SDS011;58464;52.298;4.852;2023-08-01T03:03:15;8.77;;;2.60;;
70838;SDS011;58464;52.298;4.852;2023-08-01T03:05:40;14.03;;;2.83;;
70838;SDS011;58464;52.298;4.852;2023-08-01T03:08:05;14.53;;;3.63;;
70838;SDS011;58464;52.298;4.852;2023-08-01T03:10:31;12.77;;;2.58;;
70838;SDS011;58464;52.298;4.852;2023-08-01T03:12:56;9.17;;;3.20;;
70838;SDS011;58464;52.298;4.852;2023-08-01T03:15:21;10.30;;;3.03;;
70838;SDS011;58464;52.298;4.852;2023-08-01T03:17:46;15.80;;;4.43;;
70838;SDS011;58464;52.298;4.852;2023-08-01T03:20:12;10.70;;;3.43;;
70838;SDS011;58464;52.298;4.852;2023-08-01T03:22:38;14.50;;;3.80;;
70838;SDS011;58464;52.298;4.852;2023-08-01T03:25:04;16.80;;;3.70;;
70838;SDS011;58464;52.298;4.852;2023-08-01T03:27:32;14.82;;;3.38;;
70838;SDS011;58464;52.298;4.852;2023-08-01T03:29:58;12.77;;;3.97;;
70838;SDS011;58464;52.298;4.852;2023-08-01T03:32:23;14.87;;;3.20;;
70838;SDS011;58464;52.298;4.852;2023-08-01T03:34:48;14.10;;;3.83;;
70838;SDS011;58464;52.298;4.852;2023-08-01T03:37:14;10.50;;;3.50;;
70838;SDS011;58464;52.298;4.852;2023-08-01T03:39:39;9.43;;;3.47;;
70838;SDS011;58464;52.298;4.852;2023-08-01T03:42:04;14.13;;;3.73;;
70838;SDS011;58464;52.298;4.852;2023-08-01T03:44:29;10.05;;;3.50;;
70838;SDS011;58464;52.298;4.852;2023-08-01T03:46:55;22.80;;;3.75;;
70838;SDS011;58464;52.298;4.852;2023-08-01T03:49:20;10.90;;;2.77;;
70838;SDS011;58464;52.298;4.852;2023-08-01T03:51:47;15.60;;;4.53;;
70838;SDS011;58464;52.298;4.852;2023-08-01T03:54:12;16.45;;;3.45;;
70838;SDS011;58464;52.298;4.852;2023-08-01T03:56:37;12.53;;;3.37;;
70838;SDS011;58464;52.298;4.852;2023-08-01T03:59:05;19.00;;;4.07;;
70838;SDS011;58464;52.298;4.852;2023-08-01T04:01:30;14.40;;;3.55;;
70838;SDS011;58464;52.298;4.852;2023-08-01T04:03:57;14.45;;;3.90;;
70838;SDS011;58464;52.298;4.852;2023-08-01T04:06:25;10.18;;;3.35;;
70838;SDS011;58464;52.298;4.852;2023-08-01T04:08:51;19.13;;;3.50;;
70838;SDS011;58464;52.298;4.852;2023-08-01T04:11:17;13.25;;;3.25;;
70838;SDS011;58464;52.298;4.852;2023-08-01T04:13:43;13.68;;;3.70;;
70838;SDS011;58464;52.298;4.852;2023-08-01T04:16:09;11.07;;;2.60;;
70838;SDS011;58464;52.298;4.852;2023-08-01T04:18:34;16.87;;;3.53;;
70838;SDS011;58464;52.298;4.852;2023-08-01T04:20:59;12.60;;;3.42;;
70838;SDS011;58464;52.298;4.852;2023-08-01T04:23:28;12.73;;;3.03;;
70838;SDS011;58464;52.298;4.852;2023-08-01T04:25:53;21.23;;;3.30;;
70838;SDS011;58464;52.298;4.852;2023-08-01T04:28:22;12.13;;;3.10;;
70838;SDS011;58464;52.298;4.852;2023-08-01T04:30:51;12.88;;;2.70;;
70838;SDS011;58464;52.298;4.852;2023-08-01T04:33:17;21.13;;;2.63;;
70838;SDS011;58464;52.298;4.852;2023-08-01T04:35:42;6.38;;;2.25;;
70838;SDS011;58464;52.298;4.852;2023-08-01T04:38:09;13.80;;;2.57;;
70838;SDS011;58464;52.298;4.852;2023-08-01T04:40:35;6.93;;;2.30;;
70838;SDS011;58464;52.298;4.852;2023-08-01T04:43:01;11.95;;;2.72;;
70838;SDS011;58464;52.298;4.852;2023-08-01T04:45:26;10.23;;;2.10;;
70838;SDS011;58464;52.298;4.852;2023-08-01T04:47:52;12.80;;;2.72;;
70838;SDS011;58464;52.298;4.852;2023-08-01T04:50:17;13.27;;;3.00;;
70838;SDS011;58464;52.298;4.852;2023-08-01T04:52:43;12.83;;;2.37;;
70838;SDS011;58464;52.298;4.852;2023-08-01T04:55:08;12.93;;;2.87;;
70838;SDS011;58464;52.298;4.852;2023-08-01T04:57:34;13.05;;;3.08;;
70838;SDS011;58464;52.298;4.852;2023-08-01T04:59:59;8.57;;;2.67;;
70838;SDS011;58464;52.298;4.852;2023-08-01T05:02:26;16.25;;;3.28;;
70838;SDS011;58464;52.298;4.852;2023-08-01T05:04:51;9.30;;;2.60;;
70838;SDS011;58464;52.298;4.852;2023-08-01T05:07:16;14.20;;;3.47;;
70838;SDS011;58464;52.298;4.852;2023-08-01T05:09:42;17.88;;;2.85;;
70838;SDS011;58464;52.298;4.852;2023-08-01T05:12:07;12.23;;;3.55;;
70838;SDS011;58464;52.298;4.852;2023-08-01T05:14:34;12.85;;;2.97;;
70838;SDS011;58464;52.298;4.852;2023-08-01T05:16:59;12.50;;;2.85;;
70838;SDS011;58464;52.298;4.852;2023-08-01T05:19:24;8.60;;;2.60;;
70838;SDS011;58464;52.298;4.852;2023-08-01T05:21:50;12.80;;;3.20;;
70838;SDS011;58464;52.298;4.852;2023-08-01T05:24:15;13.73;;;3.45;;
70838;SDS011;58464;52.298;4.852;2023-08-01T05:26:40;11.10;;;2.28;;
70838;SDS011;58464;52.298;4.852;2023-08-01T05:29:06;12.52;;;2.55;;
70838;SDS011;58464;52.298;4.852;2023-08-01T05:31:32;18.27;;;2.80;;
70838;SDS011;58464;52.298;4.852;2023-08-01T05:33:58;17.08;;;2.67;;
70838;SDS011;58464;52.298;4.852;2023-08-01T05:36:24;9.47;;;2.40;;
70838;SDS011;58464;52.298;4.852;2023-08-01T05:38:49;10.30;;;2.67;;
70838;SDS011;58464;52.298;4.852;2023-08-01T05:41:14;10.80;;;2.10;;
70838;SDS011;58464;52.298;4.852;2023-08-01T05:43:40;7.57;;;2.28;;
70838;SDS011;58464;52.298;4.852;2023-08-01T05:46:05;11.17;;;2.27;;
70838;SDS011;58464;52.298;4.852;2023-08-01T05:48:30;11.95;;;2.53;;
70838;SDS011;58464;52.298;4.852;2023-08-01T05:50:56;11.30;;;2.00;;
70838;SDS011;58464;52.298;4.852;2023-08-01T05:53:21;13.52;;;2.95;;
70838;SDS011;58464;52.298;4.852;2023-08-01T05:55:46;11.80;;;2.40;;
70838;SDS011;58464;52.298;4.852;2023-08-01T05:58:12;16.33;;;2.78;;
70838;SDS011;58464;52.298;4.852;2023-08-01T06:00:37;5.53;;;1.90;;
70838;SDS011;58464;52.298;4.852;2023-08-01T06:03:02;7.10;;;1.67;;
70838;SDS011;58464;52.298;4.852;2023-08-01T06:05:28;6.32;;;1.85;;
70838;SDS011;58464;52.298;4.852;2023-08-01T06:07:56;13.50;;;2.50;;
70838;SDS011;58464;52.298;4.852;2023-08-01T06:10:21;15.23;;;2.17;;
70838;SDS011;58464;52.298;4.852;2023-08-01T06:12:46;11.10;;;3.35;;
70838;SDS011;58464;52.298;4.852;2023-08-01T06:15:12;11.57;;;2.73;;
70838;SDS011;58464;52.298;4.852;2023-08-01T06:17:37;11.55;;;2.13;;
70838;SDS011;58464;52.298;4.852;2023-08-01T06:20:03;10.77;;;2.60;;
70838;SDS011;58464;52.298;4.852;2023-08-01T06:22:31;10.93;;;2.03;;
70838;SDS011;58464;52.298;4.852;2023-08-01T06:24:57;15.57;;;2.85;;
70838;SDS011;58464;52.298;4.852;2023-08-01T06:27:22;10.07;;;2.55;;
70838;SDS011;58464;52.298;4.852;2023-08-01T06:29:49;7.00;;;2.13;;
70838;SDS011;58464;52.298;4.852;2023-08-01T06:32:14;12.47;;;2.27;;
70838;SDS011;58464;52.298;4.852;2023-08-01T06:34:39;6.82;;;2.20;;
70838;SDS011;58464;52.298;4.852;2023-08-01T06:37:05;9.07;;;2.67;;
70838;SDS011;58464;52.298;4.852;2023-08-01T06:39:31;13.40;;;4.27;;
70838;SDS011;58464;52.298;4.852;2023-08-01T06:41:57;7.32;;;2.03;;
70838;SDS011;58464;52.298;4.852;2023-08-01T06:44:22;5.53;;;1.70;;
70838;SDS011;58464;52.298;4.852;2023-08-01T06:46:48;9.07;;;1.85;;
70838;SDS011;58464;52.298;4.852;2023-08-01T06:49:14;9.82;;;2.15;;
70838;SDS011;58464;52.298;4.852;2023-08-01T06:51:40;12.65;;;2.03;;
70838;SDS011;58464;52.298;4.852;2023-08-01T06:54:07;7.38;;;1.85;;
70838;SDS011;58464;52.298;4.852;2023-08-01T06:56:32;8.18;;;2.22;;
70838;SDS011;58464;52.298;4.852;2023-08-01T06:58:59;15.68;;;2.97;;
70838;SDS011;58464;52.298;4.852;2023-08-01T07:01:25;10.18;;;2.58;;
70838;SDS011;58464;52.298;4.852;2023-08-01T07:03:52;10.60;;;2.25;;
70838;SDS011;58464;52.298;4.852;2023-08-01T07:06:18;12.67;;;2.67;;
70838;SDS011;58464;52.298;4.852;2023-08-01T07:08:43;11.55;;;2.22;;
70838;SDS011;58464;52.298;4.852;2023-08-01T07:11:08;10.27;;;2.50;;
70838;SDS011;58464;52.298;4.852;2023-08-01T07:13:34;7.30;;;2.27;;
70838;SDS011;58464;52.298;4.852;2023-08-01T07:15:59;8.52;;;2.58;;
70838;SDS011;58464;52.298;4.852;2023-08-01T07:18:24;7.80;;;1.83;;
70838;SDS011;58464;52.298;4.852;2023-08-01T07:20:58;15.07;;;2.85;;
70838;SDS011;58464;52.298;4.852;2023-08-01T07:23:24;9.00;;;1.98;;
70838;SDS011;58464;52.298;4.852;2023-08-01T07:25:50;6.07;;;1.87;;
70838;SDS011;58464;52.298;4.852;2023-08-01T07:28:15;13.98;;;2.60;;
70838;SDS011;58464;52.298;4.852;2023-08-01T07:30:40;7.53;;;1.93;;
70838;SDS011;58464;52.298;4.852;2023-08-01T07:33:06;9.37;;;1.93;;
70838;SDS011;58464;52.298;4.852;2023-08-01T07:35:31;4.60;;;1.60;;
70838;SDS011;58464;52.298;4.852;2023-08-01T07:37:56;12.90;;;2.28;;
70838;SDS011;58464;52.298;4.852;2023-08-01T07:40:22;11.55;;;1.80;;
70838;SDS011;58464;52.298;4.852;2023-08-01T07:42:50;11.23;;;1.90;;
70838;SDS011;58464;52.298;4.852;2023-08-01T07:45:17;9.60;;;2.17;;
70838;SDS011;58464;52.298;4.852;2023-08-01T07:47:44;8.73;;;2.10;;
70838;SDS011;58464;52.298;4.852;2023-08-01T07:50:09;7.90;;;2.17;;
70838;SDS011;58464;52.298;4.852;2023-08-01T07:52:34;8.48;;;1.88;;
70838;SDS011;58464;52.298;4.852;2023-08-01T07:55:00;7.25;;;2.70;;
70838;SDS011;58464;52.298;4.852;2023-08-01T07:57:25;5.30;;;2.03;;
70838;SDS011;58464;52.298;4.852;2023-08-01T07:59:50;6.57;;;1.37;;
70838;SDS011;58464;52.298;4.852;2023-08-01T08:02:16;11.45;;;1.85;;
70838;SDS011;58464;52.298;4.852;2023-08-01T08:04:41;7.18;;;1.77;;
70838;SDS011;58464;52.298;4.852;2023-08-01T08:07:06;8.43;;;2.00;;
70838;SDS011;58464;52.298;4.852;2023-08-01T08:09:31;3.95;;;1.35;;
70838;SDS011;58464;52.298;4.852;2023-08-01T08:11:57;8.70;;;2.10;;
70838;SDS011;58464;52.298;4.852;2023-08-01T08:14:23;10.80;;;2.10;;
70838;SDS011;58464;52.298;4.852;2023-08-01T08:16:49;8.63;;;1.95;;
70838;SDS011;58464;52.298;4.852;2023-08-01T08:19:15;5.15;;;1.52;;
70838;SDS011;58464;52.298;4.852;2023-08-01T08:21:40;4.85;;;1.35;;
70838;SDS011;58464;52.298;4.852;2023-08-01T08:24:05;8.75;;;1.90;;
70838;SDS011;58464;52.298;4.852;2023-08-01T08:26:31;5.87;;;1.50;;
70838;SDS011;58464;52.298;4.852;2023-08-01T08:28:59;7.50;;;2.13;;
70838;SDS011;58464;52.298;4.852;2023-08-01T08:31:24;14.32;;;3.13;;
70838;SDS011;58464;52.298;4.852;2023-08-01T08:33:49;4.78;;;2.20;;
70838;SDS011;58464;52.298;4.852;2023-08-01T08:36:15;10.77;;;2.10;;
70838;SDS011;58464;52.298;4.852;2023-08-01T08:38:40;9.40;;;2.05;;
70838;SDS011;58464;52.298;4.852;2023-08-01T08:41:09;6.93;;;2.25;;
70838;SDS011;58464;52.298;4.852;2023-08-01T08:43:35;8.25;;;2.40;;
70838;SDS011;58464;52.298;4.852;2023-08-01T08:46:02;8.63;;;2.53;;
70838;SDS011;58464;52.298;4.852;2023-08-01T08:48:29;18.65;;;3.17;;
70838;SDS011;58464;52.298;4.852;2023-08-01T08:50:57;12.40;;;2.10;;
70838;SDS011;58464;52.298;4.852;2023-08-01T08:53:22;9.90;;;1.83;;
70838;SDS011;58464;52.298;4.852;2023-08-01T08:55:48;9.40;;;1.77;;
70838;SDS011;58464;52.298;4.852;2023-08-01T08:58:13;8.23;;;1.67;;
70838;SDS011;58464;52.298;4.852;2023-08-01T09:00:39;5.60;;;1.38;;
70838;SDS011;58464;52.298;4.852;2023-08-01T09:03:05;18.80;;;2.50;;
70838;SDS011;58464;52.298;4.852;2023-08-01T09:05:31;5.10;;;1.55;;
70838;SDS011;58464;52.298;4.852;2023-08-01T09:07:59;6.68;;;1.58;;
70838;SDS011;58464;52.298;4.852;2023-08-01T09:10:27;13.55;;;1.70;;
70838;SDS011;58464;52.298;4.852;2023-08-01T09:12:53;8.85;;;1.55;;
70838;SDS011;58464;52.298;4.852;2023-08-01T09:15:18;6.75;;;1.70;;
70838;SDS011;58464;52.298;4.852;2023-08-01T09:17:51;4.03;;;1.40;;
70838;SDS011;58464;52.298;4.852;2023-08-01T09:20:16;6.00;;;1.67;;
70838;SDS011;58464;52.298;4.852;2023-08-01T09:22:45;6.45;;;1.92;;
70838;SDS011;58464;52.298;4.852;2023-08-01T09:25:11;7.60;;;2.42;;
70838;SDS011;58464;52.298;4.852;2023-08-01T09:27:36;7.63;;;1.75;;
70838;SDS011;58464;52.298;4.852;2023-08-01T09:30:13;6.15;;;2.00;;
70838;SDS011;58464;52.298;4.852;2023-08-01T09:32:50;5.50;;;1.92;;
70838;SDS011;58464;52.298;4.852;2023-08-01T09:35:16;5.88;;;1.70;;
70838;SDS011;58464;52.298;4.852;2023-08-01T09:37:42;8.40;;;1.60;;
70838;SDS011;58464;52.298;4.852;2023-08-01T09:40:08;6.05;;;2.30;;
70838;SDS011;58464;52.298;4.852;2023-08-01T09:42:41;6.43;;;1.92;;
70838;SDS011;58464;52.298;4.852;2023-08-01T09:45:17;8.70;;;1.88;;
70838;SDS011;58464;52.298;4.852;2023-08-01T09:47:43;3.85;;;1.48;;
70838;SDS011;58464;52.298;4.852;2023-08-01T09:50:10;10.35;;;3.30;;
70838;SDS011;58464;52.298;4.852;2023-08-01T09:52:36;11.00;;;1.95;;
70838;SDS011;58464;52.298;4.852;2023-08-01T09:55:01;10.48;;;3.25;;
70838;SDS011;58464;52.298;4.852;2023-08-01T09:57:29;9.80;;;1.55;;
70838;SDS011;58464;52.298;4.852;2023-08-01T09:59:58;8.88;;;2.10;;
70838;SDS011;58464;52.298;4.852;2023-08-01T10:02:24;10.50;;;2.13;;
70838;SDS011;58464;52.298;4.852;2023-08-01T10:04:54;9.15;;;2.55;;
70838;SDS011;58464;52.298;4.852;2023-08-01T10:07:23;9.75;;;2.20;;
70838;SDS011;58464;52.298;4.852;2023-08-01T10:09:53;10.15;;;2.13;;
70838;SDS011;58464;52.298;4.852;2023-08-01T10:12:19;6.47;;;1.80;;
70838;SDS011;58464;52.298;4.852;2023-08-01T10:14:45;12.40;;;2.65;;
70838;SDS011;58464;52.298;4.852;2023-08-01T10:17:10;7.47;;;1.97;;
70838;SDS011;58464;52.298;4.852;2023-08-01T10:19:36;7.53;;;1.55;;
70838;SDS011;58464;52.298;4.852;2023-08-01T10:22:02;9.85;;;2.45;;
70838;SDS011;58464;52.298;4.852;2023-08-01T10:24:28;8.05;;;1.75;;
70838;SDS011;58464;52.298;4.852;2023-08-01T10:26:55;6.45;;;1.73;;
70838;SDS011;58464;52.298;4.852;2023-08-01T10:29:21;4.03;;;1.80;;
70838;SDS011;58464;52.298;4.852;2023-08-01T10:31:50;7.38;;;1.58;;
70838;SDS011;58464;52.298;4.852;2023-08-01T10:34:17;13.93;;;2.58;;
70838;SDS011;58464;52.298;4.852;2023-08-01T10:36:52;13.95;;;2.75;;
70838;SDS011;58464;52.298;4.852;2023-08-01T10:39:20;6.85;;;1.80;;
70838;SDS011;58464;52.298;4.852;2023-08-01T10:41:47;10.70;;;2.03;;
70838;SDS011;58464;52.298;4.852;2023-08-01T10:44:21;7.35;;;1.95;;
70838;SDS011;58464;52.298;4.852;2023-08-01T10:49:15;6.43;;;2.15;;
70838;SDS011;58464;52.298;4.852;2023-08-01T10:51:41;8.93;;;2.08;;
70838;SDS011;58464;52.298;4.852;2023-08-01T10:54:07;9.10;;;2.22;;
70838;SDS011;58464;52.298;4.852;2023-08-01T10:56:44;13.25;;;2.20;;
70838;SDS011;58464;52.298;4.852;2023-08-01T10:59:09;7.78;;;2.17;;
70838;SDS011;58464;52.298;4.852;2023-08-01T11:01:42;9.60;;;1.90;;
70838;SDS011;58464;52.298;4.852;2023-08-01T11:04:15;4.72;;;1.63;;
70838;SDS011;58464;52.298;4.852;2023-08-01T11:06:44;4.55;;;1.48;;
70838;SDS011;58464;52.298;4.852;2023-08-01T11:09:22;8.45;;;1.38;;
70838;SDS011;58464;52.298;4.852;2023-08-01T11:11:49;4.38;;;1.80;;
70838;SDS011;58464;52.298;4.852;2023-08-01T11:14:14;6.72;;;1.65;;
70838;SDS011;58464;52.298;4.852;2023-08-01T11:16:40;10.15;;;2.53;;
70838;SDS011;58464;52.298;4.852;2023-08-01T11:19:06;6.13;;;2.22;;
70838;SDS011;58464;52.298;4.852;2023-08-01T11:21:32;8.32;;;2.10;;
70838;SDS011;58464;52.298;4.852;2023-08-01T11:24:05;7.85;;;2.05;;
70838;SDS011;58464;52.298;4.852;2023-08-01T11:26:30;9.18;;;2.17;;
70838;SDS011;58464;52.298;4.852;2023-08-01T11:29:00;12.95;;;2.55;;
70838;SDS011;58464;52.298;4.852;2023-08-01T11:31:26;8.30;;;2.15;;
70838;SDS011;58464;52.298;4.852;2023-08-01T11:33:55;7.40;;;2.08;;
70838;SDS011;58464;52.298;4.852;2023-08-01T11:36:22;9.20;;;2.53;;
70838;SDS011;58464;52.298;4.852;2023-08-01T11:38:48;9.73;;;2.15;;
70838;SDS011;58464;52.298;4.852;2023-08-01T11:41:14;8.32;;;1.95;;
70838;SDS011;58464;52.298;4.852;2023-08-01T11:43:42;7.93;;;1.73;;
70838;SDS011;58464;52.298;4.852;2023-08-01T11:46:08;6.35;;;1.63;;
70838;SDS011;58464;52.298;4.852;2023-08-01T11:48:33;11.15;;;2.83;;
70838;SDS011;58464;52.298;4.852;2023-08-01T11:50:59;5.53;;;1.55;;
70838;SDS011;58464;52.298;4.852;2023-08-01T11:53:24;10.50;;;1.70;;
70838;SDS011;58464;52.298;4.852;2023-08-01T11:55:50;7.00;;;2.85;;
70838;SDS011;58464;52.298;4.852;2023-08-01T11:58:27;8.25;;;1.80;;
70838;SDS011;58464;52.298;4.852;2023-08-01T12:01:01;7.53;;;1.92;;
70838;SDS011;58464;52.298;4.852;2023-08-01T12:03:26;9.07;;;2.40;;
70838;SDS011;58464;52.298;4.852;2023-08-01T12:05:51;8.53;;;2.43;;
70838;SDS011;58464;52.298;4.852;2023-08-01T12:08:16;4.97;;;1.90;;
70838;SDS011;58464;52.298;4.852;2023-08-01T12:10:45;11.77;;;2.30;;
70838;SDS011;58464;52.298;4.852;2023-08-01T12:13:20;7.57;;;1.75;;
70838;SDS011;58464;52.298;4.852;2023-08-01T12:15:47;4.43;;;1.52;;
70838;SDS011;58464;52.298;4.852;2023-08-01T12:18:19;9.90;;;2.15;;
70838;SDS011;58464;52.298;4.852;2023-08-01T12:20:44;4.93;;;1.60;;
70838;SDS011;58464;52.298;4.852;2023-08-01T12:23:09;9.00;;;1.65;;
70838;SDS011;58464;52.298;4.852;2023-08-01T12:25:35;7.55;;;1.70;;
70838;SDS011;58464;52.298;4.852;2023-08-01T12:28:00;7.10;;;1.57;;
70838;SDS011;58464;52.298;4.852;2023-08-01T12:30:25;6.37;;;2.03;;
70838;SDS011;58464;52.298;4.852;2023-08-01T12:32:50;2.83;;;1.30;;
70838;SDS011;58464;52.298;4.852;2023-08-01T12:35:16;6.82;;;1.15;;
70838;SDS011;58464;52.298;4.852;2023-08-01T12:37:41;6.65;;;1.70;;
70838;SDS011;58464;52.298;4.852;2023-08-01T12:40:06;7.10;;;1.37;;
70838;SDS011;58464;52.298;4.852;2023-08-01T12:42:32;5.30;;;1.70;;
70838;SDS011;58464;52.298;4.852;2023-08-01T12:44:57;6.03;;;1.17;;
70838;SDS011;58464;52.298;4.852;2023-08-01T12:47:22;4.13;;;1.63;;
70838;SDS011;58464;52.298;4.852;2023-08-01T12:49:48;9.55;;;2.47;;
70838;SDS011;58464;52.298;4.852;2023-08-01T12:52:25;5.82;;;1.73;;
70838;SDS011;58464;52.298;4.852;2023-08-01T12:54:51;7.78;;;1.17;;
70838;SDS011;58464;52.298;4.852;2023-08-01T12:57:16;6.90;;;1.35;;
70838;SDS011;58464;52.298;4.852;2023-08-01T12:59:41;5.95;;;1.40;;
70838;SDS011;58464;52.298;4.852;2023-08-01T13:02:06;8.07;;;1.70;;
70838;SDS011;58464;52.298;4.852;2023-08-01T13:04:33;10.40;;;2.17;;
70838;SDS011;58464;52.298;4.852;2023-08-01T13:06:59;10.35;;;2.40;;
70838;SDS011;58464;52.298;4.852;2023-08-01T13:09:24;5.80;;;1.50;;
70838;SDS011;58464;52.298;4.852;2023-08-01T13:11:49;7.07;;;1.67;;
70838;SDS011;58464;52.298;4.852;2023-08-01T13:14:15;8.70;;;1.70;;
70838;SDS011;58464;52.298;4.852;2023-08-01T13:16:40;10.07;;;2.43;;
70838;SDS011;58464;52.298;4.852;2023-08-01T13:19:06;6.18;;;1.55;;
70838;SDS011;58464;52.298;4.852;2023-08-01T13:21:32;9.38;;;2.00;;
70838;SDS011;58464;52.298;4.852;2023-08-01T13:23:59;12.40;;;2.70;;
70838;SDS011;58464;52.298;4.852;2023-08-01T13:26:24;5.57;;;1.98;;
70838;SDS011;58464;52.298;4.852;2023-08-01T13:28:50;9.80;;;2.58;;
70838;SDS011;58464;52.298;4.852;2023-08-01T13:31:15;8.88;;;2.78;;
70838;SDS011;58464;52.298;4.852;2023-08-01T13:33:40;10.80;;;2.25;;
70838;SDS011;58464;52.298;4.852;2023-08-01T13:36:07;14.07;;;3.28;;
70838;SDS011;58464;52.298;4.852;2023-08-01T13:38:32;11.57;;;2.08;;
70838;SDS011;58464;52.298;4.852;2023-08-01T13:41:01;14.30;;;2.33;;
70838;SDS011;58464;52.298;4.852;2023-08-01T13:43:26;7.25;;;1.70;;
70838;SDS011;58464;52.298;4.852;2023-08-01T13:45:51;9.85;;;2.10;;
70838;SDS011;58464;52.298;4.852;2023-08-01T13:48:18;5.93;;;1.60;;
70838;SDS011;58464;52.298;4.852;2023-08-01T13:50:43;10.55;;;2.25;;
70838;SDS011;58464;52.298;4.852;2023-08-01T13:53:08;11.27;;;2.63;;
70838;SDS011;58464;52.298;4.852;2023-08-01T13:55:37;13.65;;;2.78;;
70838;SDS011;58464;52.298;4.852;2023-08-01T13:58:02;11.25;;;1.77;;
70838;SDS011;58464;52.298;4.852;2023-08-01T14:00:27;15.17;;;3.00;;
70838;SDS011;58464;52.298;4.852;2023-08-01T14:02:53;8.90;;;2.33;;
70838;SDS011;58464;52.298;4.852;2023-08-01T14:05:18;11.13;;;1.63;;
70838;SDS011;58464;52.298;4.852;2023-08-01T14:07:43;7.68;;;2.15;;
70838;SDS011;58464;52.298;4.852;2023-08-01T14:10:08;7.47;;;1.80;;
70838;SDS011;58464;52.298;4.852;2023-08-01T14:12:34;7.38;;;1.83;;
70838;SDS011;58464;52.298;4.852;2023-08-01T14:14:59;9.70;;;2.87;;
70838;SDS011;58464;52.298;4.852;2023-08-01T14:17:24;11.00;;;2.23;;
70838;SDS011;58464;52.298;4.852;2023-08-01T14:19:51;12.40;;;2.33;;
70838;SDS011;58464;52.298;4.852;2023-08-01T14:22:18;8.32;;;2.45;;
70838;SDS011;58464;52.298;4.852;2023-08-01T14:24:43;7.27;;;2.50;;
70838;SDS011;58464;52.298;4.852;2023-08-01T14:27:08;7.53;;;2.67;;
70838;SDS011;58464;52.298;4.852;2023-08-01T14:29:34;5.65;;;1.70;;
70838;SDS011;58464;52.298;4.852;2023-08-01T14:32:00;6.93;;;2.43;;
70838;SDS011;58464;52.298;4.852;2023-08-01T14:34:25;8.65;;;2.08;;
70838;SDS011;58464;52.298;4.852;2023-08-01T14:36:51;12.70;;;2.63;;